Time;durP1;ratioP1;P1;durP2;ratioP2;P2;SDS_P1;SDS_P2;PMS_P1;PMS_P2;Temp;Humidity;BMP_temperature;BMP_pressure;BME280_temperature;BME280_humidity;BME280_pressure;Samples;Min_cycle;Max_cycle;Signal;HPM_P1;HPM_P2
2023/12/26 00:01:06;;;;;;;2.72;0.98;;;9.50;99.90;;;;;;4249080;27;20051;-81
2023/12/26 00:03:08;;;;;;;1.90;0.90;;;9.40;99.90;;;;;;4249656;27;20048;-81
2023/12/26 00:05:09;;;;;;;1.52;1.10;;;9.60;99.90;;;;;;4249592;27;20502;-80
2023/12/26 00:07:09;;;;;;;2.97;0.95;;;9.50;99.90;;;;;;4249301;27;20095;-80
2023/12/26 00:09:12;;;;;;;1.13;0.75;;;9.50;99.90;;;;;;4249370;27;20092;-80
2023/12/26 00:11:13;;;;;;;2.58;0.82;;;9.50;99.90;;;;;;4238405;27;20052;-80
2023/12/26 00:13:14;;;;;;;3.03;1.33;;;9.50;99.90;;;;;;4232395;28;20036;-80
2023/12/26 00:15:14;;;;;;;1.75;0.95;;;9.60;99.90;;;;;;4232655;28;20119;-80
2023/12/26 00:17:15;;;;;;;4.70;1.40;;;9.50;99.90;;;;;;4232204;28;20122;-80
2023/12/26 00:19:16;;;;;;;1.65;1.10;;;9.50;99.90;;;;;;4240505;27;20484;-81
2023/12/26 00:21:16;;;;;;;2.15;1.20;;;9.50;99.90;;;;;;4249495;27;20039;-80
2023/12/26 00:23:17;;;;;;;3.17;1.30;;;9.60;99.90;;;;;;4249353;27;20081;-80
2023/12/26 00:25:18;;;;;;;4.20;1.02;;;9.60;99.90;;;;;;4249448;27;20057;-81
2023/12/26 00:27:19;;;;;;;3.13;1.50;;;9.60;99.90;;;;;;4249245;27;20099;-80
2023/12/26 00:29:19;;;;;;;2.85;1.35;;;9.60;99.90;;;;;;4249158;27;20075;-80
2023/12/26 00:31:20;;;;;;;2.28;1.05;;;9.70;99.90;;;;;;4248898;27;20035;-81
2023/12/26 00:33:21;;;;;;;3.42;1.00;;;9.60;99.90;;;;;;4249116;27;20043;-81
2023/12/26 00:35:22;;;;;;;2.30;1.00;;;9.60;99.90;;;;;;4248845;27;20047;-81
2023/12/26 00:37:23;;;;;;;1.70;0.70;;;9.60;99.90;;;;;;4249173;27;20047;-80
2023/12/26 00:39:25;;;;;;;2.63;0.70;;;9.60;99.90;;;;;;4248789;27;20084;-80
2023/12/26 00:41:26;;;;;;;1.73;0.80;;;9.70;99.90;;;;;;4248466;27;20042;-81
2023/12/26 00:43:26;;;;;;;4.75;0.90;;;9.70;99.90;;;;;;4248904;27;20544;-80
2023/12/26 00:45:27;;;;;;;3.53;0.90;;;9.70;99.90;;;;;;4230704;28;20043;-81
2023/12/26 00:47:28;;;;;;;1.88;0.65;;;9.70;99.90;;;;;;4248788;27;20051;-80
2023/12/26 00:49:28;;;;;;;2.25;0.77;;;9.70;99.90;;;;;;4248965;27;20458;-81
2023/12/26 00:51:30;;;;;;;1.85;0.63;;;9.60;99.90;;;;;;4248632;27;20047;-81
2023/12/26 00:53:31;;;;;;;2.38;0.60;;;9.70;99.90;;;;;;4248998;27;20449;-80
2023/12/26 00:55:31;;;;;;;0.95;0.50;;;9.70;99.90;;;;;;4248885;27;20043;-80
2023/12/26 00:57:33;;;;;;;1.88;0.40;;;9.70;99.90;;;;;;4249064;27;20046;-81
2023/12/26 00:59:33;;;;;;;1.05;0.45;;;9.60;99.90;;;;;;4249013;27;20140;-81
2023/12/26 01:01:34;;;;;;;0.60;0.50;;;9.70;99.90;;;;;;4248293;27;20055;-81
2023/12/26 01:03:35;;;;;;;1.88;0.55;;;9.70;99.90;;;;;;4248208;27;20062;-81
2023/12/26 01:05:36;;;;;;;1.73;0.35;;;9.60;99.90;;;;;;4248789;27;20394;-81
2023/12/26 01:07:36;;;;;;;0.82;0.40;;;9.70;99.90;;;;;;4248118;27;20043;-81
2023/12/26 01:09:37;;;;;;;3.53;0.60;;;9.70;99.90;;;;;;4248195;27;20089;-81
2023/12/26 01:11:38;;;;;;;3.05;0.60;;;9.70;99.90;;;;;;4246252;27;20490;-81
2023/12/26 01:13:38;;;;;;;4.13;0.43;;;9.60;99.90;;;;;;4248357;27;20039;-81
2023/12/26 01:15:39;;;;;;;1.80;0.35;;;9.70;99.90;;;;;;4248626;27;20137;-81
2023/12/26 01:17:40;;;;;;;2.15;0.70;;;9.70;99.90;;;;;;4248418;27;20057;-81
2023/12/26 01:19:41;;;;;;;2.03;0.60;;;9.70;99.90;;;;;;4248628;27;20043;-81
2023/12/26 01:21:42;;;;;;;2.78;0.35;;;9.70;99.90;;;;;;4229543;28;20049;-81
2023/12/26 01:23:42;;;;;;;4.63;0.68;;;9.70;99.90;;;;;;4248304;27;20043;-81
2023/12/26 01:25:43;;;;;;;4.22;0.50;;;9.60;99.90;;;;;;4248404;27;20108;-81
2023/12/26 01:27:44;;;;;;;2.10;0.70;;;9.60;99.90;;;;;;4247207;27;20380;-81
2023/12/26 01:29:44;;;;;;;5.05;0.40;;;9.70;99.90;;;;;;4232531;27;20537;-81
2023/12/26 01:31:45;;;;;;;6.53;0.57;;;9.70;99.90;;;;;;4231467;28;20043;-81
2023/12/26 01:33:46;;;;;;;5.63;0.63;;;9.70;99.90;;;;;;4231460;28;20036;-81
2023/12/26 01:35:48;;;;;;;5.10;0.77;;;9.60;99.90;;;;;;4231110;28;20047;-81
2023/12/26 01:37:49;;;;;;;4.78;0.82;;;9.80;99.90;;;;;;4231109;28;20039;-81
2023/12/26 01:39:50;;;;;;;12.90;2.30;;;9.70;99.90;;;;;;4231257;28;20054;-81
2023/12/26 01:41:51;;;;;;;4.82;0.75;;;9.60;99.90;;;;;;4243340;27;20034;-81
2023/12/26 01:43:52;;;;;;;3.50;0.50;;;9.60;99.90;;;;;;4248077;27;20031;-81
2023/12/26 01:45:58;;;;;;;6.57;0.77;;;9.60;99.90;;;;;;4248040;28;20047;-81
2023/12/26 01:48:00;;;;;;;7.75;0.90;;;9.70;99.90;;;;;;4247973;28;20058;-80
2023/12/26 01:50:01;;;;;;;7.78;1.10;;;9.60;99.90;;;;;;4248292;28;20047;-81
2023/12/26 01:52:05;;;;;;;9.43;1.05;;;9.60;99.90;;;;;;4248032;28;20049;-81
2023/12/26 01:54:06;;;;;;;9.38;1.67;;;9.60;99.90;;;;;;4243852;28;20183;-81
2023/12/26 01:56:11;;;;;;;12.68;1.00;;;9.60;99.90;;;;;;4248130;28;20096;-81
2023/12/26 01:58:11;;;;;;;7.13;0.85;;;9.60;99.90;;;;;;4248178;28;20058;-81
2023/12/26 02:00:13;;;;;;;10.10;1.20;;;9.60;99.90;;;;;;4247784;28;20043;-81
2023/12/26 02:02:14;;;;;;;10.90;2.33;;;9.60;99.90;;;;;;4247529;28;20130;-81
2023/12/26 02:04:15;;;;;;;8.13;1.25;;;9.60;99.90;;;;;;4249601;28;20124;-80
2023/12/26 02:06:18;;;;;;;8.82;1.27;;;9.50;99.90;;;;;;4258995;28;20503;-81
2023/12/26 02:08:19;;;;;;;8.73;1.05;;;9.50;99.90;;;;;;4254517;28;20081;-81
2023/12/26 02:10:20;;;;;;;10.40;1.88;;;9.50;99.90;;;;;;4254909;28;20043;-81
2023/12/26 02:12:22;;;;;;;9.38;1.35;;;9.50;99.90;;;;;;4250389;28;20468;-81
2023/12/26 02:14:24;;;;;;;14.65;1.10;;;9.50;99.90;;;;;;4237721;28;20043;-81
2023/12/26 02:16:26;;;;;;;6.13;0.98;;;9.50;99.90;;;;;;4238948;28;20044;-81
2023/12/26 02:18:28;;;;;;;7.68;1.30;;;9.50;99.90;;;;;;4250826;27;20061;-81
2023/12/26 02:20:29;;;;;;;6.00;1.20;;;9.50;99.90;;;;;;4240865;28;20039;-81
2023/12/26 02:22:30;;;;;;;13.25;1.88;;;9.50;99.90;;;;;;4258677;27;20098;-81
2023/12/26 02:24:30;;;;;;;6.20;1.00;;;9.50;99.90;;;;;;4257571;27;20043;-81
2023/12/26 02:26:35;;;;;;;8.98;1.17;;;9.60;99.90;;;;;;4252139;27;20041;-81
2023/12/26 02:28:37;;;;;;;6.57;1.48;;;9.60;99.90;;;;;;4243226;27;20081;-81
2023/12/26 02:30:38;;;;;;;9.18;1.25;;;9.60;99.90;;;;;;4234337;28;20058;-81
2023/12/26 02:32:41;;;;;;;10.88;2.05;;;9.50;99.90;;;;;;4234369;28;20039;-81
2023/12/26 02:34:42;;;;;;;6.65;1.48;;;9.50;99.90;;;;;;4233916;28;20040;-81
2023/12/26 02:36:43;;;;;;;10.40;1.77;;;9.50;99.90;;;;;;4234122;28;20050;-81
2023/12/26 02:38:44;;;;;;;10.60;1.88;;;9.50;99.90;;;;;;4249256;27;20039;-81
2023/12/26 02:40:44;;;;;;;11.07;1.20;;;9.50;99.90;;;;;;4250879;27;20040;-81
2023/12/26 02:42:45;;;;;;;12.93;1.50;;;9.50;99.90;;;;;;4251069;27;20039;-81
2023/12/26 02:44:46;;;;;;;18.55;1.85;;;9.50;99.90;;;;;;4251178;27;20050;-81
2023/12/26 02:46:47;;;;;;;7.75;1.65;;;9.50;99.90;;;;;;4250798;27;20043;-81
2023/12/26 02:48:48;;;;;;;10.30;2.17;;;9.50;99.90;;;;;;4251091;27;20043;-81
2023/12/26 02:50:48;;;;;;;10.25;1.58;;;9.50;99.90;;;;;;4250971;27;20043;-81
2023/12/26 02:52:49;;;;;;;10.85;1.90;;;9.40;99.90;;;;;;4251019;27;20039;-81
2023/12/26 02:54:50;;;;;;;14.55;2.28;;;9.40;99.90;;;;;;4251070;27;20437;-81
2023/12/26 02:56:50;;;;;;;11.68;1.98;;;9.40;99.90;;;;;;4250909;27;20039;-81
2023/12/26 02:58:51;;;;;;;6.40;1.23;;;9.40;99.90;;;;;;4250595;27;20039;-81
2023/12/26 03:00:51;;;;;;;12.35;1.50;;;9.40;99.90;;;;;;4250696;27;20043;-81
2023/12/26 03:02:52;;;;;;;9.00;1.25;;;9.40;99.90;;;;;;4250089;27;20047;-81
2023/12/26 03:04:53;;;;;;;8.88;1.42;;;9.30;99.90;;;;;;4251066;27;20147;-81
2023/12/26 03:06:55;;;;;;;7.15;1.20;;;9.30;99.90;;;;;;4250864;27;20039;-81
2023/12/26 03:08:55;;;;;;;7.15;1.50;;;9.20;99.90;;;;;;4250883;27;20399;-81
2023/12/26 03:10:57;;;;;;;7.38;2.03;;;9.30;99.90;;;;;;4234285;27;20043;-84
2023/12/26 03:12:57;;;;;;;4.57;0.98;;;9.10;99.90;;;;;;4235969;28;20047;-83
2023/12/26 03:14:59;;;;;;;9.65;2.10;;;9.10;99.90;;;;;;4234443;27;20050;-83
2023/12/26 03:17:00;;;;;;;8.32;1.42;;;9.10;99.90;;;;;;4233885;28;20051;-83
2023/12/26 03:19:00;;;;;;;14.93;2.55;;;9.20;99.90;;;;;;4242020;27;20043;-83
2023/12/26 03:21:01;;;;;;;12.63;1.27;;;9.00;99.90;;;;;;4232547;28;20060;-83
2023/12/26 03:23:02;;;;;;;7.05;0.90;;;9.00;99.90;;;;;;4248622;27;20091;-83
2023/12/26 03:25:03;;;;;;;10.10;1.50;;;9.00;99.90;;;;;;4233443;28;20050;-83
2023/12/26 03:27:06;;;;;;;10.10;1.63;;;8.90;99.90;;;;;;4233572;28;20483;-83
2023/12/26 03:29:06;;;;;;;12.25;1.40;;;8.90;99.90;;;;;;4233697;28;20476;-84
2023/12/26 03:31:07;;;;;;;7.18;1.45;;;8.90;99.90;;;;;;4233298;28;20054;-83
2023/12/26 03:33:07;;;;;;;13.35;1.45;;;8.80;99.90;;;;;;4243050;27;20035;-83
2023/12/26 03:35:10;;;;;;;4.78;1.10;;;8.80;99.90;;;;;;4250559;27;20051;-83
2023/12/26 03:37:11;;;;;;;5.50;1.23;;;8.80;99.90;;;;;;4237912;27;20055;-83
2023/12/26 03:39:12;;;;;;;10.10;1.55;;;8.80;99.90;;;;;;4215162;28;20044;-83
2023/12/26 03:41:13;;;;;;;7.38;1.70;;;9.10;99.90;;;;;;4215320;28;20048;-84
2023/12/26 03:43:16;;;;;;;5.28;1.00;;;8.80;99.90;;;;;;4242772;27;20491;-83
2023/12/26 03:45:17;;;;;;;10.10;1.48;;;8.70;99.90;;;;;;4243889;27;20591;-83
2023/12/26 03:47:19;;;;;;;8.80;1.70;;;8.70;99.90;;;;;;4233484;28;20118;-83
2023/12/26 03:49:20;;;;;;;14.52;1.83;;;8.60;99.90;;;;;;4239440;27;20376;-83
2023/12/26 03:51:22;;;;;;;7.45;1.02;;;9.00;99.90;;;;;;4250416;27;20043;-83
2023/12/26 03:53:22;;;;;;;11.85;1.52;;;8.90;99.90;;;;;;4250152;27;20043;-83
2023/12/26 03:55:23;;;;;;;9.32;3.05;;;8.70;99.90;;;;;;4250376;27;20115;-83
2023/12/26 03:57:24;;;;;;;13.20;1.55;;;8.60;99.90;;;;;;4250544;27;20054;-83
2023/12/26 03:59:24;;;;;;;10.13;1.77;;;8.60;99.90;;;;;;4231970;28;20058;-83
2023/12/26 04:01:25;;;;;;;17.13;1.95;;;8.60;99.90;;;;;;4250075;27;20072;-84
2023/12/26 04:03:26;;;;;;;11.65;1.88;;;8.50;99.90;;;;;;4250124;27;20506;-83
2023/12/26 04:05:27;;;;;;;10.23;1.42;;;8.50;99.90;;;;;;4249701;27;20126;-83
2023/12/26 04:07:27;;;;;;;11.13;1.77;;;8.40;99.90;;;;;;4249902;27;20049;-83
2023/12/26 04:09:28;;;;;;;9.77;1.35;;;8.80;99.90;;;;;;4249894;27;20104;-83
2023/12/26 04:11:30;;;;;;;13.82;2.08;;;8.40;99.90;;;;;;4249782;27;20183;-83
2023/12/26 04:13:31;;;;;;;15.90;2.70;;;8.70;99.90;;;;;;4249988;27;20043;-83
2023/12/26 04:15:31;;;;;;;6.03;1.45;;;8.30;99.90;;;;;;4237489;27;20108;-83
2023/12/26 04:17:32;;;;;;;10.40;1.75;;;8.70;99.90;;;;;;4232826;28;20048;-83
2023/12/26 04:19:33;;;;;;;17.35;1.85;;;8.50;99.90;;;;;;4232820;28;20399;-83
2023/12/26 04:21:34;;;;;;;9.18;2.72;;;8.40;99.90;;;;;;4232706;28;20046;-84
2023/12/26 04:23:34;;;;;;;10.45;1.50;;;8.50;99.90;;;;;;4198053;28;20045;-83
2023/12/26 04:25:35;;;;;;;17.77;3.50;;;8.30;99.90;;;;;;4247023;27;20050;-83
2023/12/26 04:27:36;;;;;;;12.02;2.28;;;8.10;99.90;;;;;;4250124;27;20066;-84
2023/12/26 04:29:36;;;;;;;17.75;2.70;;;8.10;99.90;;;;;;4249434;27;20043;-83
2023/12/26 04:31:37;;;;;;;11.93;1.42;;;8.00;99.90;;;;;;4249794;27;20053;-83
2023/12/26 04:33:38;;;;;;;9.23;1.67;;;8.20;99.90;;;;;;4249504;27;20043;-83
2023/12/26 04:35:38;;;;;;;13.07;2.05;;;8.10;99.90;;;;;;4250224;27;20055;-83
2023/12/26 04:37:39;;;;;;;11.57;2.28;;;8.00;99.90;;;;;;4250048;27;20611;-83
2023/12/26 04:39:40;;;;;;;11.63;1.33;;;8.00;99.90;;;;;;4250368;27;20039;-83
2023/12/26 04:41:42;;;;;;;12.95;1.90;;;8.00;99.90;;;;;;4249544;27;20067;-83
2023/12/26 04:43:44;;;;;;;13.45;1.80;;;8.60;99.90;;;;;;4236448;28;20082;-84
2023/12/26 04:45:44;;;;;;;19.10;2.63;;;8.10;99.90;;;;;;4252980;28;20024;-83
2023/12/26 04:47:45;;;;;;;6.88;1.77;;;8.00;99.90;;;;;;4268788;27;20046;-83
2023/12/26 04:49:46;;;;;;;13.68;1.73;;;8.20;99.90;;;;;;4268034;27;20075;-83
2023/12/26 04:51:46;;;;;;;13.18;2.40;;;8.20;99.90;;;;;;4268748;27;20060;-83
2023/12/26 04:53:52;;;;;;;11.05;1.42;;;8.70;99.90;;;;;;4268571;27;20102;-83
2023/12/26 04:55:54;;;;;;;15.73;2.80;;;8.10;99.90;;;;;;4268178;27;20095;-83
2023/12/26 04:57:54;;;;;;;6.68;1.10;;;8.10;99.90;;;;;;4253203;27;20036;-83
2023/12/26 05:00:13;;;;;;;10.57;1.55;;;8.10;99.90;;;;;;4257732;27;20398;-83
2023/12/26 05:02:33;;;;;;;13.80;2.42;;;8.10;99.90;;;;;;4250297;27;20050;-83
2023/12/26 05:04:34;;;;;;;17.02;2.33;;;8.10;99.90;;;;;;4235454;27;20086;-83
2023/12/26 05:06:36;;;;;;;14.52;2.13;;;8.10;99.90;;;;;;4233757;28;20043;-83
2023/12/26 05:08:38;;;;;;;13.13;1.75;;;8.10;99.90;;;;;;4233373;28;20100;-83
2023/12/26 05:10:38;;;;;;;9.95;2.13;;;8.60;99.90;;;;;;4233565;28;20043;-83
2023/12/26 05:12:40;;;;;;;11.18;1.42;;;8.20;99.90;;;;;;4233601;28;20048;-84
2023/12/26 05:14:41;;;;;;;13.05;1.50;;;8.50;99.90;;;;;;4244227;27;20413;-83
2023/12/26 05:16:42;;;;;;;8.95;2.72;;;8.20;99.90;;;;;;4250943;27;20043;-84
2023/12/26 05:18:44;;;;;;;10.20;1.60;;;8.60;99.90;;;;;;4252607;27;20405;-83
2023/12/26 05:20:45;;;;;;;20.05;3.33;;;8.60;99.90;;;;;;4254334;27;20043;-83
2023/12/26 05:22:45;;;;;;;11.00;1.48;;;8.20;99.90;;;;;;4257954;27;20043;-83
2023/12/26 05:24:46;;;;;;;9.98;1.88;;;8.40;99.90;;;;;;4257656;27;20181;-83
2023/12/26 05:26:47;;;;;;;8.93;1.95;;;8.70;99.90;;;;;;4259858;27;20075;-84
2023/12/26 05:28:47;;;;;;;9.60;1.45;;;8.20;99.90;;;;;;4270214;27;20023;-83
2023/12/26 05:30:48;;;;;;;12.93;1.35;;;8.20;99.90;;;;;;4269493;27;20082;-83
2023/12/26 05:32:49;;;;;;;19.08;3.22;;;8.60;99.90;;;;;;4269048;27;20027;-83
2023/12/26 05:34:55;;;;;;;12.63;1.48;;;8.70;99.90;;;;;;4269078;27;20043;-83
2023/12/26 05:36:56;;;;;;;26.90;2.65;;;8.30;99.90;;;;;;4270130;27;20030;-83
2023/12/26 05:39:10;;;;;;;11.52;2.85;;;8.80;99.90;;;;;;4252558;28;20047;-84
2023/12/26 05:41:11;;;;;;;10.93;1.35;;;8.30;99.90;;;;;;4252450;28;20035;-83
2023/12/26 05:43:47;;;;;;;10.38;1.70;;;8.70;99.90;;;;;;4270422;27;20050;-83
2023/12/26 05:46:09;;;;;;;12.82;1.65;;;8.30;99.90;;;;;;4270238;27;20023;-82
2023/12/26 05:48:10;;;;;;;10.45;1.73;;;8.40;99.90;;;;;;4270287;28;20045;-83
2023/12/26 05:50:17;;;;;;;17.13;1.85;;;8.50;99.90;;;;;;4251459;28;20051;-83
2023/12/26 05:52:18;;;;;;;10.38;1.23;;;8.40;99.90;;;;;;4258023;28;20471;-84
2023/12/26 05:54:19;;;;;;;8.00;1.45;;;8.60;99.90;;;;;;4251322;27;20128;-83
2023/12/26 05:56:20;;;;;;;12.35;1.67;;;8.80;99.90;;;;;;4253265;27;20031;-84
2023/12/26 05:58:20;;;;;;;9.25;1.30;;;8.40;99.90;;;;;;4253271;27;20061;-84
2023/12/26 06:00:21;;;;;;;8.93;1.10;;;8.90;99.90;;;;;;4253459;27;20043;-83
2023/12/26 06:02:23;;;;;;;10.93;1.45;;;8.80;99.90;;;;;;4252876;27;20050;-84
2023/12/26 06:04:23;;;;;;;10.63;2.05;;;8.30;99.90;;;;;;4253000;27;20039;-83
2023/12/26 06:06:24;;;;;;;10.77;1.42;;;8.70;99.90;;;;;;4250531;27;20371;-83
2023/12/26 06:08:26;;;;;;;4.43;1.20;;;9.00;99.90;;;;;;4268695;27;20039;-83
2023/12/26 06:10:28;;;;;;;6.75;0.80;;;8.30;99.90;;;;;;4252385;27;20047;-83
2023/12/26 06:12:29;;;;;;;13.45;2.22;;;8.50;99.90;;;;;;4251736;27;20096;-83
2023/12/26 06:14:30;;;;;;;13.05;1.45;;;8.40;99.90;;;;;;4251905;27;20047;-83
2023/12/26 06:16:31;;;;;;;11.80;1.40;;;8.60;99.90;;;;;;4248477;27;20078;-83
2023/12/26 06:18:33;;;;;;;8.82;1.42;;;8.40;99.90;;;;;;4251873;27;20433;-83
2023/12/26 06:20:34;;;;;;;9.38;1.17;;;8.50;99.90;;;;;;4252212;27;20070;-83
2023/12/26 06:22:34;;;;;;;10.98;1.65;;;8.50;99.90;;;;;;4251801;27;20046;-84
2023/12/26 06:24:35;;;;;;;16.00;2.65;;;9.10;99.90;;;;;;4251840;27;20126;-84
2023/12/26 06:26:37;;;;;;;10.93;1.45;;;8.40;99.90;;;;;;4251746;27;20053;-83
2023/12/26 06:28:38;;;;;;;12.73;1.25;;;8.60;99.90;;;;;;4251963;27;20126;-83
2023/12/26 06:30:39;;;;;;;14.48;1.77;;;8.40;99.90;;;;;;4251197;27;20039;-84
2023/12/26 06:32:40;;;;;;;8.20;1.38;;;8.30;99.90;;;;;;4236555;27;20115;-84
2023/12/26 06:34:41;;;;;;;12.88;2.50;;;8.80;99.90;;;;;;4251732;27;20043;-84
2023/12/26 06:36:41;;;;;;;8.05;1.08;;;8.40;99.90;;;;;;4251726;27;20043;-83
2023/12/26 06:38:42;;;;;;;6.78;0.95;;;8.70;99.90;;;;;;4251707;27;20043;-83
2023/12/26 06:40:43;;;;;;;8.23;1.90;;;8.30;99.90;;;;;;4251139;27;20043;-83
2023/12/26 06:42:45;;;;;;;12.48;1.30;;;8.20;99.90;;;;;;4251769;27;20043;-84
2023/12/26 06:44:45;;;;;;;12.75;1.27;;;8.40;99.90;;;;;;4251828;27;20047;-84
2023/12/26 06:46:47;;;;;;;11.80;1.98;;;8.50;99.90;;;;;;4252589;27;20117;-83
2023/12/26 06:48:48;;;;;;;11.70;1.85;;;8.10;99.90;;;;;;4251773;27;20043;-83
2023/12/26 06:50:49;;;;;;;5.50;1.23;;;8.10;99.90;;;;;;4252958;27;20088;-84
2023/12/26 06:52:49;;;;;;;10.02;1.73;;;8.60;99.90;;;;;;4255690;27;20061;-84
2023/12/26 06:54:50;;;;;;;12.05;1.52;;;8.40;99.90;;;;;;4253539;27;20043;-84
2023/12/26 06:56:52;;;;;;;9.20;1.40;;;8.30;99.90;;;;;;4252220;27;20047;-83
2023/12/26 06:58:53;;;;;;;15.55;2.33;;;8.10;99.90;;;;;;4252795;27;20050;-84
2023/12/26 07:00:53;;;;;;;14.73;2.53;;;8.60;99.90;;;;;;4251972;27;20047;-83
2023/12/26 07:02:55;;;;;;;8.30;1.35;;;8.10;99.90;;;;;;4252698;27;20118;-84
2023/12/26 07:04:56;;;;;;;12.98;1.45;;;8.60;99.90;;;;;;4234228;28;20044;-83
2023/12/26 07:06:56;;;;;;;13.98;2.33;;;8.10;99.90;;;;;;4252044;27;20089;-84
2023/12/26 07:08:57;;;;;;;11.25;1.35;;;8.50;99.90;;;;;;4252950;27;20123;-84
2023/12/26 07:10:58;;;;;;;9.95;1.23;;;8.30;99.90;;;;;;4252300;27;20122;-84
2023/12/26 07:13:00;;;;;;;12.20;2.08;;;8.70;99.90;;;;;;4233348;28;20115;-84
2023/12/26 07:15:02;;;;;;;14.38;2.28;;;8.20;99.90;;;;;;4248221;27;20449;-84
2023/12/26 07:17:04;;;;;;;13.60;1.80;;;8.10;99.90;;;;;;4231382;28;20503;-83
2023/12/26 07:19:04;;;;;;;14.57;2.05;;;8.10;99.90;;;;;;4236322;27;20104;-83
2023/12/26 07:21:05;;;;;;;12.15;1.40;;;8.20;99.90;;;;;;4235029;28;20484;-82
2023/12/26 07:23:07;;;;;;;16.02;2.03;;;8.00;99.90;;;;;;4234537;28;20040;-82
2023/12/26 07:25:10;;;;;;;11.80;1.65;;;8.50;99.90;;;;;;4237333;27;20043;-81
2023/12/26 07:27:10;;;;;;;12.43;1.92;;;8.40;99.90;;;;;;4250678;27;20078;-81
2023/12/26 07:29:11;;;;;;;14.45;2.35;;;8.00;99.90;;;;;;4251540;27;20070;-81
2023/12/26 07:31:25;;;;;;;33.45;2.92;;;8.10;99.90;;;;;;4234248;27;20058;-81
2023/12/26 07:33:26;;;;;;;8.85;1.25;;;8.30;99.90;;;;;;4237753;28;20073;-81
2023/12/26 07:35:29;;;;;;;16.48;2.45;;;8.10;99.90;;;;;;4247583;28;20047;-81
2023/12/26 07:37:29;;;;;;;11.20;2.63;;;8.40;99.90;;;;;;4249520;28;20067;-81
2023/12/26 07:39:30;;;;;;;16.60;2.47;;;8.20;99.90;;;;;;4240760;28;20404;-81
2023/12/26 07:41:31;;;;;;;11.88;2.67;;;8.00;99.90;;;;;;4237828;27;20040;-80
2023/12/26 07:43:32;;;;;;;15.48;1.88;;;8.10;99.90;;;;;;4257284;27;20039;-83
2023/12/26 07:45:34;;;;;;;21.48;2.45;;;8.20;99.90;;;;;;4249449;27;20075;-83
2023/12/26 07:47:35;;;;;;;9.02;2.55;;;8.00;99.90;;;;;;4246136;27;20485;-83
2023/12/26 07:49:36;;;;;;;16.20;1.90;;;8.10;99.90;;;;;;4251647;27;20269;-82
2023/12/26 07:51:38;;;;;;;19.42;2.63;;;8.10;99.90;;;;;;4250968;27;20491;-81
2023/12/26 07:53:39;;;;;;;13.98;2.38;;;8.30;99.90;;;;;;4250452;27;20058;-81
2023/12/26 07:55:39;;;;;;;9.93;1.42;;;8.70;99.90;;;;;;4250242;27;20031;-80
2023/12/26 07:57:40;;;;;;;10.75;2.70;;;8.10;99.90;;;;;;4250801;27;20039;-80
2023/12/26 07:59:42;;;;;;;8.32;1.17;;;8.10;99.90;;;;;;4250429;27;20043;-80
2023/12/26 08:01:43;;;;;;;16.85;2.50;;;8.10;99.90;;;;;;4250042;27;20135;-80
2023/12/26 08:03:44;;;;;;;12.77;2.30;;;8.10;99.90;;;;;;4241590;27;20032;-80
2023/12/26 08:05:44;;;;;;;11.90;2.30;;;8.20;99.90;;;;;;4233977;28;20523;-79
2023/12/26 08:07:47;;;;;;;16.33;1.77;;;8.10;99.90;;;;;;4232834;27;20048;-79
2023/12/26 08:09:48;;;;;;;15.57;1.75;;;8.10;99.90;;;;;;4244384;27;20044;-79
2023/12/26 08:11:48;;;;;;;14.55;2.08;;;8.40;99.90;;;;;;4232795;28;20047;-79
2023/12/26 08:13:49;;;;;;;14.93;2.63;;;8.30;99.90;;;;;;4248873;27;20088;-80
2023/12/26 08:15:50;;;;;;;14.00;1.60;;;8.60;99.90;;;;;;4249923;27;20071;-79
2023/12/26 08:17:51;;;;;;;10.80;1.40;;;8.10;99.90;;;;;;4249264;27;20040;-80
2023/12/26 08:19:52;;;;;;;14.30;2.08;;;8.70;99.90;;;;;;4248217;27;20039;-83
2023/12/26 08:21:53;;;;;;;11.15;1.60;;;8.30;99.90;;;;;;4251116;27;20053;-83
2023/12/26 08:23:53;;;;;;;12.00;1.58;;;8.10;99.90;;;;;;4233786;28;20048;-85
2023/12/26 08:25:55;;;;;;;10.60;2.47;;;8.00;99.90;;;;;;4250176;27;20388;-84
2023/12/26 08:27:55;;;;;;;14.68;1.45;;;8.10;99.90;;;;;;4250743;27;20071;-84
2023/12/26 08:29:56;;;;;;;15.70;2.33;;;8.50;99.90;;;;;;4244582;27;20515;-87
2023/12/26 08:31:57;;;;;;;13.50;2.13;;;8.10;99.90;;;;;;4248011;27;20039;-84
2023/12/26 08:33:57;;;;;;;19.95;3.33;;;8.90;99.90;;;;;;4246255;27;20047;-83
2023/12/26 08:35:59;;;;;;;13.02;1.70;;;8.60;99.90;;;;;;4231737;28;20039;-84
2023/12/26 08:38:00;;;;;;;20.58;2.97;;;8.00;99.90;;;;;;4242155;27;20522;-85
2023/12/26 08:40:01;;;;;;;13.77;2.22;;;8.60;99.90;;;;;;4235063;27;20090;-83
2023/12/26 08:42:05;;;;;;;9.93;1.67;;;8.00;99.90;;;;;;4250479;27;20047;-83
2023/12/26 08:44:08;;;;;;;14.45;2.15;;;8.00;99.90;;;;;;4250470;27;20035;-83
2023/12/26 08:46:09;;;;;;;7.85;1.65;;;8.50;99.90;;;;;;4250407;27;20043;-84
2023/12/26 08:48:11;;;;;;;8.73;1.52;;;8.40;99.90;;;;;;4250336;27;20487;-83
2023/12/26 08:50:11;;;;;;;14.48;1.70;;;8.30;99.90;;;;;;4250742;27;20498;-83
2023/12/26 08:52:13;;;;;;;10.57;2.25;;;8.10;99.90;;;;;;4251433;27;20114;-83
2023/12/26 08:54:43;;;;;;;9.10;1.50;;;8.60;99.90;;;;;;4256927;27;20065;-86
2023/12/26 08:56:43;;;;;;;10.23;1.52;;;8.20;99.90;;;;;;4253896;27;20039;-84
2023/12/26 08:58:44;;;;;;;12.27;2.05;;;8.60;99.90;;;;;;4257110;27;20046;-85
2023/12/26 09:00:45;;;;;;;17.23;2.05;;;8.30;99.90;;;;;;4265078;27;20043;-87
2023/12/26 09:02:45;;;;;;;10.32;1.67;;;8.20;99.90;;;;;;4249415;28;20067;-86
2023/12/26 09:04:47;;;;;;;9.30;1.35;;;8.20;99.90;;;;;;4266033;27;20054;-85
2023/12/26 09:06:49;;;;;;;13.15;2.25;;;9.80;99.90;;;;;;4267517;27;20043;-85
2023/12/26 09:08:55;;;;;;;9.23;1.27;;;8.30;99.90;;;;;;4246253;28;20035;-86
2023/12/26 09:10:57;;;;;;;19.90;2.90;;;8.30;99.90;;;;;;4266971;27;20043;-87
2023/12/26 09:12:58;;;;;;;9.05;2.25;;;8.50;99.90;;;;;;4250100;27;20124;-87
2023/12/26 09:15:01;;;;;;;12.55;1.98;;;8.30;99.90;;;;;;4267710;27;20039;-86
2023/12/26 09:17:01;;;;;;;18.05;2.05;;;8.40;99.90;;;;;;4265929;27;20040;-85
2023/12/26 09:19:03;;;;;;;14.18;2.60;;;8.40;99.90;;;;;;4262696;27;20120;-85
2023/12/26 09:21:04;;;;;;;9.45;2.22;;;8.80;99.90;;;;;;4225032;28;20101;-85
2023/12/26 09:23:04;;;;;;;9.88;1.50;;;8.40;99.90;;;;;;4243007;27;20497;-86
2023/12/26 09:25:07;;;;;;;10.48;1.27;;;9.40;99.90;;;;;;4245725;27;20411;-81
2023/12/26 09:27:08;;;;;;;10.05;1.52;;;8.50;99.90;;;;;;4237226;27;20043;-84
2023/12/26 09:29:09;;;;;;;13.90;1.50;;;8.40;99.90;;;;;;4243816;27;20070;-84
2023/12/26 09:31:11;;;;;;;13.55;2.15;;;8.40;99.90;;;;;;4250394;27;20039;-82
2023/12/26 09:33:12;;;;;;;15.48;1.52;;;8.50;99.90;;;;;;4252348;27;20051;-83
2023/12/26 09:35:13;;;;;;;14.85;2.60;;;8.50;99.90;;;;;;4263273;27;20074;-84
2023/12/26 09:37:14;;;;;;;18.90;1.73;;;8.50;99.90;;;;;;4262525;27;20051;-81
2023/12/26 09:39:15;;;;;;;9.05;1.50;;;8.40;99.90;;;;;;4258448;27;20039;-81
2023/12/26 09:41:21;;;;;;;17.75;2.30;;;8.50;99.90;;;;;;4236381;28;20040;-81
2023/12/26 09:43:22;;;;;;;9.98;2.30;;;8.60;99.90;;;;;;4240337;28;20075;-82
2023/12/26 09:45:26;;;;;;;12.13;1.40;;;8.50;99.90;;;;;;4232761;28;20050;-83
2023/12/26 09:47:29;;;;;;;15.75;2.97;;;8.50;99.90;;;;;;4233871;28;20052;-83
2023/12/26 09:49:30;;;;;;;12.95;1.77;;;8.50;99.90;;;;;;4233218;28;20161;-83
2023/12/26 09:51:34;;;;;;;12.77;1.65;;;8.60;99.90;;;;;;4233088;28;20480;-82
2023/12/26 09:53:40;;;;;;;17.30;1.73;;;8.50;99.90;;;;;;4232568;28;20043;-82
2023/12/26 09:55:41;;;;;;;9.68;1.88;;;8.50;99.90;;;;;;4233512;28;20035;-82
2023/12/26 09:57:43;;;;;;;15.35;2.05;;;8.80;99.90;;;;;;4243266;28;20085;-82
2023/12/26 09:59:44;;;;;;;13.80;1.63;;;8.90;99.90;;;;;;4241808;28;20047;-82
2023/12/26 10:01:45;;;;;;;9.45;2.03;;;8.50;99.90;;;;;;4248754;28;20073;-83
2023/12/26 10:03:46;;;;;;;12.13;2.35;;;8.60;99.90;;;;;;4249393;28;20043;-83
2023/12/26 10:05:47;;;;;;;13.02;2.53;;;8.60;99.90;;;;;;4242206;28;20043;-83
2023/12/26 10:07:48;;;;;;;8.48;1.48;;;8.50;99.90;;;;;;4235884;28;20048;-82
2023/12/26 10:09:49;;;;;;;15.52;1.55;;;8.60;99.90;;;;;;4240337;28;20074;-82
2023/12/26 10:11:52;;;;;;;12.52;2.00;;;8.60;99.90;;;;;;4248146;28;20111;-83
2023/12/26 10:13:54;;;;;;;11.85;1.98;;;8.60;99.90;;;;;;4249203;28;20395;-83
2023/12/26 10:15:55;;;;;;;12.40;1.73;;;8.70;99.90;;;;;;4248227;28;20050;-82
2023/12/26 10:17:56;;;;;;;10.02;1.45;;;8.70;99.90;;;;;;4248529;28;20425;-83
2023/12/26 10:19:58;;;;;;;13.25;2.05;;;9.20;99.90;;;;;;4230463;28;20612;-82
2023/12/26 10:21:58;;;;;;;13.63;1.75;;;9.20;99.90;;;;;;4241988;28;20040;-83
2023/12/26 10:23:59;;;;;;;18.13;2.65;;;8.80;99.90;;;;;;4245488;28;20491;-84
2023/12/26 10:26:01;;;;;;;13.27;1.95;;;8.80;99.90;;;;;;4248226;28;20043;-83
2023/12/26 10:28:02;;;;;;;9.40;1.90;;;8.70;99.90;;;;;;4248799;28;20512;-84
2023/12/26 10:30:03;;;;;;;14.38;1.98;;;8.70;99.90;;;;;;4249352;27;20043;-84
2023/12/26 10:32:04;;;;;;;8.52;2.45;;;8.70;99.90;;;;;;4231137;28;20200;-84
2023/12/26 10:34:19;;;;;;;13.63;2.85;;;8.70;99.90;;;;;;4242492;28;20050;-84
2023/12/26 10:36:20;;;;;;;14.85;2.08;;;9.30;99.90;;;;;;4246460;28;20510;-84